Time;durP1;ratioP1;P1;durP2;ratioP2;P2;SDS_P1;SDS_P2;PMS_P1;PMS_P2;Temp;Humidity;BMP_temperature;BMP_pressure;BME280_temperature;BME280_humidity;BME280_pressure;Samples;Min_cycle;Max_cycle;Signal;HPM_P1;HPM_P2
2022/06/27 00:01:10;;;;;;;5.23;2.70;;;17.90;99.90;;;;;;4860909;29;21152;-75
2022/06/27 00:03:36;;;;;;;3.87;2.53;;;17.90;99.90;;;;;;4860528;29;20817;-75
2022/06/27 00:06:03;;;;;;;3.00;2.70;;;17.80;99.90;;;;;;4863779;29;20466;-74
2022/06/27 00:08:30;;;;;;;2.10;1.90;;;17.80;99.90;;;;;;4864698;29;20461;-74
2022/06/27 00:10:57;;;;;;;2.90;2.70;;;17.80;99.90;;;;;;4864985;29;20479;-74
2022/06/27 00:13:26;;;;;;;5.43;2.60;;;17.80;99.90;;;;;;4864459;29;20452;-74
2022/06/27 00:15:52;;;;;;;5.13;3.20;;;17.80;99.90;;;;;;4867546;29;20442;-75
2022/06/27 00:18:19;;;;;;;3.40;2.40;;;18.00;99.90;;;;;;4868990;29;20472;-75
2022/06/27 00:20:46;;;;;;;5.90;2.30;;;18.20;99.90;;;;;;4866401;29;20443;-74
2022/06/27 00:23:13;;;;;;;1.93;1.73;;;18.10;99.90;;;;;;4864518;29;20508;-74
2022/06/27 00:25:40;;;;;;;2.20;2.10;;;18.20;99.90;;;;;;4865078;29;20440;-75
2022/06/27 00:28:07;;;;;;;3.80;2.20;;;18.10;99.90;;;;;;4863978;29;20444;-75
2022/06/27 00:30:35;;;;;;;3.77;2.20;;;18.20;99.90;;;;;;4863855;29;20970;-74
2022/06/27 00:33:02;;;;;;;2.53;1.90;;;18.20;99.90;;;;;;4864060;29;20482;-75
2022/06/27 00:35:28;;;;;;;5.30;2.43;;;18.20;99.90;;;;;;4865015;29;20465;-75
2022/06/27 00:37:55;;;;;;;2.17;2.07;;;18.20;99.90;;;;;;4865004;29;20567;-74
2022/06/27 00:40:22;;;;;;;4.20;2.23;;;18.20;99.90;;;;;;4865027;29;20548;-74
2022/06/27 00:42:49;;;;;;;2.93;2.40;;;18.30;99.90;;;;;;4864385;29;20848;-74
2022/06/27 00:45:16;;;;;;;2.23;1.70;;;18.30;99.90;;;;;;4865311;29;20461;-73
2022/06/27 00:47:44;;;;;;;4.20;2.10;;;18.10;99.90;;;;;;4864981;29;20473;-74
2022/06/27 00:50:11;;;;;;;4.43;1.93;;;18.10;99.90;;;;;;4865295;29;20469;-74
2022/06/27 00:52:38;;;;;;;3.40;2.10;;;18.10;99.90;;;;;;4866040;29;21032;-75
2022/06/27 00:55:07;;;;;;;2.40;1.87;;;18.00;99.90;;;;;;4875857;29;20516;-74
2022/06/27 00:57:34;;;;;;;2.00;1.87;;;17.90;99.90;;;;;;4882172;29;20521;-74
2022/06/27 01:00:01;;;;;;;2.20;1.80;;;17.90;99.90;;;;;;4885009;29;20459;-74
2022/06/27 01:02:28;;;;;;;3.80;1.90;;;17.80;99.90;;;;;;4873339;29;20456;-74
2022/06/27 01:04:56;;;;;;;2.07;1.70;;;17.80;99.90;;;;;;4883975;29;20448;-74
2022/06/27 01:07:23;;;;;;;1.87;1.43;;;17.70;99.90;;;;;;4886113;29;20511;-73
2022/06/27 01:09:52;;;;;;;2.13;1.40;;;17.80;99.90;;;;;;4886539;29;20525;-74
2022/06/27 01:12:19;;;;;;;1.70;1.60;;;17.70;99.90;;;;;;4885408;29;20451;-74
2022/06/27 01:14:47;;;;;;;1.70;1.50;;;17.70;99.90;;;;;;4884989;29;20421;-73
2022/06/27 01:17:14;;;;;;;2.33;1.40;;;17.70;99.90;;;;;;4870888;29;20461;-73
2022/06/27 01:19:42;;;;;;;1.53;1.40;;;17.80;99.90;;;;;;4865153;29;20482;-73
2022/06/27 01:22:11;;;;;;;1.63;1.50;;;17.70;99.90;;;;;;4864377;29;20460;-73
2022/06/27 01:24:38;;;;;;;2.10;1.43;;;17.80;99.90;;;;;;4864203;29;20441;-73
2022/06/27 01:27:05;;;;;;;1.27;1.20;;;17.80;99.90;;;;;;4864756;29;20432;-73
2022/06/27 01:29:32;;;;;;;1.67;1.53;;;17.90;99.90;;;;;;4863888;29;20436;-73
2022/06/27 01:32:00;;;;;;;1.80;1.70;;;17.90;99.90;;;;;;4863021;29;20463;-73
2022/06/27 01:34:27;;;;;;;0.80;0.80;;;17.90;99.90;;;;;;4863387;29;20823;-73
2022/06/27 01:36:54;;;;;;;1.43;1.33;;;17.90;99.90;;;;;;4863415;29;20867;-73
2022/06/27 01:39:24;;;;;;;1.30;1.17;;;17.90;99.90;;;;;;4862914;29;20830;-73
2022/06/27 01:41:53;;;;;;;1.63;1.17;;;17.90;99.90;;;;;;4862862;29;20479;-74
2022/06/27 01:44:21;;;;;;;2.63;1.97;;;17.90;99.90;;;;;;4862227;29;20466;-73
2022/06/27 01:46:56;;;;;;;1.23;1.23;;;17.90;99.90;;;;;;4862709;29;20476;-74
2022/06/27 01:49:22;;;;;;;1.60;1.50;;;17.90;99.90;;;;;;4862368;29;20461;-73
2022/06/27 01:51:51;;;;;;;1.60;1.33;;;17.90;99.90;;;;;;4863127;29;20503;-73
2022/06/27 01:54:22;;;;;;;1.40;1.30;;;17.90;99.90;;;;;;4862029;29;20466;-73
2022/06/27 01:56:51;;;;;;;4.93;1.50;;;17.90;99.90;;;;;;4862021;29;20476;-73
2022/06/27 01:59:22;;;;;;;1.27;1.13;;;17.90;99.90;;;;;;4862268;29;20473;-72
2022/06/27 02:01:49;;;;;;;1.43;1.33;;;17.90;99.90;;;;;;4862424;29;20456;-74
2022/06/27 02:04:17;;;;;;;2.30;1.00;;;17.90;99.90;;;;;;4845101;29;20520;-73
2022/06/27 02:06:45;;;;;;;1.50;1.20;;;17.90;99.90;;;;;;4862499;29;20777;-74
2022/06/27 02:09:14;;;;;;;3.80;1.00;;;17.80;99.90;;;;;;4862073;29;20477;-74
2022/06/27 02:11:45;;;;;;;1.60;1.37;;;17.80;99.90;;;;;;4862924;29;20481;-73
2022/06/27 02:14:12;;;;;;;1.63;1.30;;;17.80;99.90;;;;;;4862938;29;20466;-73
2022/06/27 02:16:41;;;;;;;1.30;1.20;;;18.00;99.90;;;;;;4862697;29;20461;-73
2022/06/27 02:19:08;;;;;;;2.03;1.40;;;18.00;99.90;;;;;;4861753;29;21010;-73
2022/06/27 02:21:35;;;;;;;1.40;1.30;;;18.10;99.90;;;;;;4862076;29;20526;-73
2022/06/27 02:24:03;;;;;;;1.47;1.37;;;18.10;99.90;;;;;;4861848;29;20444;-73
2022/06/27 02:26:31;;;;;;;2.53;1.60;;;18.10;99.90;;;;;;4861901;29;20468;-73
2022/06/27 02:29:01;;;;;;;4.07;1.10;;;18.10;99.90;;;;;;4861787;29;20454;-73
2022/06/27 02:31:29;;;;;;;1.23;1.23;;;18.10;99.90;;;;;;4861852;29;20546;-73
2022/06/27 02:33:57;;;;;;;1.93;1.00;;;18.10;99.90;;;;;;4861849;29;20466;-73
2022/06/27 02:36:28;;;;;;;1.20;1.10;;;18.00;99.90;;;;;;4862620;29;20804;-73
2022/06/27 02:38:57;;;;;;;0.90;0.90;;;18.00;99.90;;;;;;4861556;29;20464;-74
2022/06/27 02:41:27;;;;;;;1.63;1.43;;;18.00;99.90;;;;;;4862217;29;20486;-73
2022/06/27 02:44:00;;;;;;;6.90;1.20;;;17.90;99.90;;;;;;4862469;29;20458;-73
2022/06/27 02:46:29;;;;;;;2.10;1.23;;;17.90;99.90;;;;;;4863655;29;20462;-73
2022/06/27 02:48:56;;;;;;;1.57;1.00;;;17.90;99.90;;;;;;4864500;29;21042;-73
2022/06/27 02:51:26;;;;;;;4.43;1.47;;;17.90;99.90;;;;;;4866963;29;21030;-73
2022/06/27 02:53:59;;;;;;;3.00;1.30;;;17.90;99.90;;;;;;4868542;29;20480;-74
2022/06/27 02:56:27;;;;;;;2.10;1.50;;;17.90;99.90;;;;;;4873997;29;20473;-74
2022/06/27 02:59:03;;;;;;;1.60;1.43;;;17.90;99.90;;;;;;4871452;29;20490;-73
2022/06/27 03:01:32;;;;;;;6.07;1.60;;;17.90;99.90;;;;;;4872886;29;20504;-74
2022/06/27 03:04:00;;;;;;;1.43;1.20;;;17.80;99.90;;;;;;4876217;29;20456;-73
2022/06/27 03:06:28;;;;;;;1.50;1.40;;;17.80;99.90;;;;;;4879315;29;20477;-73
2022/06/27 03:08:55;;;;;;;1.43;1.10;;;17.80;99.90;;;;;;4870697;29;20465;-74
2022/06/27 03:11:24;;;;;;;1.73;1.40;;;17.80;99.90;;;;;;4861922;29;20456;-74
2022/06/27 03:13:53;;;;;;;3.40;1.70;;;17.70;99.90;;;;;;4861418;29;20512;-73
2022/06/27 03:16:21;;;;;;;1.93;1.30;;;17.70;99.90;;;;;;4861844;29;20462;-73
2022/06/27 03:18:50;;;;;;;2.70;1.43;;;17.70;99.90;;;;;;4861220;29;20806;-74
2022/06/27 03:21:17;;;;;;;2.97;1.47;;;17.60;99.90;;;;;;4861638;29;20589;-73
2022/06/27 03:23:45;;;;;;;2.03;1.83;;;17.60;99.90;;;;;;4860915;29;20805;-73
2022/06/27 03:26:13;;;;;;;2.80;2.60;;;17.60;99.90;;;;;;4861153;29;20416;-73
2022/06/27 03:28:40;;;;;;;1.90;1.80;;;17.50;99.90;;;;;;4860634;29;20435;-74
2022/06/27 03:31:07;;;;;;;1.80;1.70;;;17.50;99.90;;;;;;4860380;29;21004;-74
2022/06/27 03:33:34;;;;;;;2.93;1.90;;;17.60;99.90;;;;;;4861085;29;20466;-74
2022/06/27 03:36:03;;;;;;;2.30;1.80;;;17.60;99.90;;;;;;4861252;29;21008;-74
2022/06/27 03:38:30;;;;;;;2.03;1.83;;;17.60;99.90;;;;;;4860829;29;20475;-73
2022/06/27 03:40:58;;;;;;;3.00;2.17;;;17.60;99.90;;;;;;4860770;29;20810;-74
2022/06/27 03:43:25;;;;;;;1.70;1.60;;;17.60;99.90;;;;;;4860742;29;20474;-73
2022/06/27 03:45:52;;;;;;;1.80;1.70;;;17.60;99.90;;;;;;4861428;29;20937;-74
2022/06/27 03:51:04;;;;;;;3.43;2.50;;;17.50;99.90;;;;;;4860491;29;20441;-74
2022/06/27 03:53:31;;;;;;;3.93;1.57;;;17.60;99.90;;;;;;4860294;29;20477;-73
2022/06/27 03:55:58;;;;;;;1.77;1.67;;;17.60;99.90;;;;;;4860859;29;20447;-73
2022/06/27 03:58:25;;;;;;;2.50;2.30;;;17.50;99.90;;;;;;4860889;29;20586;-73
2022/06/27 04:00:52;;;;;;;1.40;1.30;;;17.60;99.90;;;;;;4860263;29;20466;-73
2022/06/27 04:03:18;;;;;;;1.83;1.63;;;17.70;99.90;;;;;;4860281;29;20489;-73
2022/06/27 04:05:45;;;;;;;1.83;1.73;;;17.70;99.90;;;;;;4860450;29;20445;-74
2022/06/27 04:08:14;;;;;;;2.50;1.40;;;17.70;99.90;;;;;;4860131;29;20432;-74
2022/06/27 04:10:41;;;;;;;1.50;1.40;;;17.70;99.90;;;;;;4860031;29;20501;-75
2022/06/27 04:13:08;;;;;;;1.90;1.63;;;17.80;99.90;;;;;;4859548;29;20491;-73
2022/06/27 04:15:34;;;;;;;3.17;1.63;;;17.70;99.90;;;;;;4859185;29;20627;-73
2022/06/27 04:18:01;;;;;;;3.33;1.87;;;17.80;99.90;;;;;;4859108;29;20464;-73
2022/06/27 04:20:28;;;;;;;2.60;1.70;;;17.80;99.90;;;;;;4860407;29;20459;-74
2022/06/27 04:22:56;;;;;;;3.60;1.80;;;17.80;99.90;;;;;;4860177;29;20490;-73
2022/06/27 04:25:24;;;;;;;2.13;1.90;;;17.90;99.90;;;;;;4860589;29;20436;-74
2022/06/27 04:27:51;;;;;;;2.30;2.20;;;17.90;99.90;;;;;;4860843;29;20524;-73
2022/06/27 04:30:18;;;;;;;2.80;2.40;;;18.00;99.90;;;;;;4860265;29;20474;-73
2022/06/27 04:32:46;;;;;;;3.97;2.77;;;18.00;99.90;;;;;;4860074;29;20457;-74
2022/06/27 04:35:13;;;;;;;3.83;3.20;;;18.00;99.90;;;;;;4860587;29;20472;-74
2022/06/27 04:37:42;;;;;;;4.13;3.37;;;18.10;99.90;;;;;;4860390;29;20466;-73
2022/06/27 04:40:11;;;;;;;3.80;3.50;;;18.20;99.90;;;;;;4860726;29;20440;-74
2022/06/27 04:42:39;;;;;;;3.60;3.30;;;18.40;99.90;;;;;;4860806;29;20973;-73
2022/06/27 04:45:11;;;;;;;5.07;3.63;;;18.40;99.90;;;;;;4867503;29;21024;-74
2022/06/27 04:47:39;;;;;;;4.40;3.13;;;18.50;99.90;;;;;;4860794;29;20449;-73
2022/06/27 04:50:08;;;;;;;3.73;3.47;;;18.50;99.90;;;;;;4861612;29;20870;-74
2022/06/27 04:52:35;;;;;;;4.50;3.50;;;18.60;99.90;;;;;;4869991;29;20472;-74
2022/06/27 04:55:02;;;;;;;3.60;3.30;;;18.50;99.90;;;;;;4865288;29;20436;-73
2022/06/27 04:57:29;;;;;;;6.03;3.67;;;18.50;99.90;;;;;;4864102;29;20469;-73
2022/06/27 04:59:57;;;;;;;4.10;3.70;;;18.50;99.90;;;;;;4864455;29;20517;-74
2022/06/27 05:02:24;;;;;;;6.67;3.57;;;18.50;99.90;;;;;;4867126;29;20516;-74
2022/06/27 05:04:50;;;;;;;3.90;3.50;;;18.50;99.90;;;;;;4869300;29;20512;-73
2022/06/27 05:07:17;;;;;;;3.90;3.60;;;18.50;99.90;;;;;;4867085;29;20504;-73
2022/06/27 05:09:45;;;;;;;4.07;3.40;;;18.50;99.90;;;;;;4867487;29;20458;-73
2022/06/27 05:12:12;;;;;;;3.83;3.43;;;18.60;99.90;;;;;;4866221;29;20465;-72
2022/06/27 05:14:39;;;;;;;3.37;3.07;;;18.60;99.90;;;;;;4867526;29;20440;-73
2022/06/27 05:17:07;;;;;;;4.97;3.70;;;18.60;99.90;;;;;;4865110;29;20461;-73
2022/06/27 05:19:34;;;;;;;5.17;3.73;;;18.60;99.90;;;;;;4863852;29;20493;-73
2022/06/27 05:22:01;;;;;;;5.83;3.80;;;18.60;99.90;;;;;;4864098;29;20521;-73
2022/06/27 05:24:28;;;;;;;4.30;3.90;;;18.60;99.90;;;;;;4869076;29;20844;-72
2022/06/27 05:26:55;;;;;;;6.43;5.07;;;18.50;99.90;;;;;;4871932;29;20447;-73
2022/06/27 05:29:22;;;;;;;5.67;4.60;;;18.50;99.90;;;;;;4866976;29;20458;-73
2022/06/27 05:31:49;;;;;;;4.13;3.83;;;18.50;99.90;;;;;;4863528;29;20516;-73
2022/06/27 05:34:17;;;;;;;6.83;4.20;;;18.50;99.90;;;;;;4845584;29;20467;-73
2022/06/27 05:36:44;;;;;;;5.10;4.43;;;18.50;99.90;;;;;;4845490;29;20553;-73
2022/06/27 05:39:11;;;;;;;5.57;4.20;;;18.50;99.90;;;;;;4863025;29;20509;-74
2022/06/27 05:41:38;;;;;;;4.50;4.00;;;18.50;99.90;;;;;;4865073;29;20489;-75
2022/06/27 05:44:06;;;;;;;5.17;4.60;;;18.40;99.90;;;;;;4867506;29;20515;-74
2022/06/27 05:46:33;;;;;;;4.93;4.43;;;18.40;99.90;;;;;;4873227;29;20465;-74
2022/06/27 05:49:01;;;;;;;7.17;4.13;;;18.40;99.90;;;;;;4864204;29;20942;-73
2022/06/27 05:51:30;;;;;;;7.93;4.43;;;18.40;99.90;;;;;;4864376;29;20991;-74
2022/06/27 05:53:58;;;;;;;6.00;4.13;;;18.40;99.90;;;;;;4864249;29;20452;-73
2022/06/27 05:56:28;;;;;;;7.10;5.23;;;18.50;99.90;;;;;;4864850;29;20554;-73
2022/06/27 05:58:55;;;;;;;4.60;4.20;;;18.50;99.90;;;;;;4865210;29;20844;-75
2022/06/27 06:01:23;;;;;;;8.13;5.17;;;18.60;99.90;;;;;;4866147;29;20459;-73
2022/06/27 06:03:50;;;;;;;10.93;5.10;;;18.50;99.90;;;;;;4871570;29;20476;-73
2022/06/27 06:06:17;;;;;;;5.23;4.83;;;18.50;99.90;;;;;;4882494;29;20513;-72
2022/06/27 06:08:45;;;;;;;6.40;5.63;;;18.50;99.90;;;;;;4880996;29;20433;-74
2022/06/27 06:11:14;;;;;;;5.30;4.90;;;18.50;99.90;;;;;;4880037;29;20437;-74
2022/06/27 06:13:43;;;;;;;5.47;4.97;;;18.60;99.90;;;;;;4877703;29;20437;-74
2022/06/27 06:16:11;;;;;;;5.90;5.37;;;18.60;99.90;;;;;;4877280;29;20437;-73
2022/06/27 06:18:38;;;;;;;7.67;5.47;;;18.60;99.90;;;;;;4867343;29;20493;-74
2022/06/27 06:21:05;;;;;;;6.50;5.97;;;18.60;99.90;;;;;;4862168;29;20519;-75
2022/06/27 06:23:33;;;;;;;6.47;5.83;;;18.70;99.90;;;;;;4863095;29;20480;-74
2022/06/27 06:26:02;;;;;;;6.67;6.20;;;18.70;99.90;;;;;;4864170;29;20466;-74
2022/06/27 06:28:31;;;;;;;6.70;5.30;;;18.80;99.90;;;;;;4865742;29;20553;-73
2022/06/27 06:30:58;;;;;;;9.80;5.73;;;18.80;99.90;;;;;;4864583;29;20557;-75
2022/06/27 06:33:26;;;;;;;6.50;6.00;;;18.80;99.90;;;;;;4869857;29;20500;-74
2022/06/27 06:35:54;;;;;;;6.27;5.67;;;18.80;99.90;;;;;;4862351;29;20518;-74
2022/06/27 06:38:21;;;;;;;6.83;5.77;;;18.80;99.90;;;;;;4862863;29;20812;-74
2022/06/27 06:40:47;;;;;;;6.80;6.20;;;18.80;99.90;;;;;;4862852;29;20477;-74
2022/06/27 06:43:16;;;;;;;6.17;5.60;;;18.90;99.90;;;;;;4863406;29;20499;-75
2022/06/27 06:45:42;;;;;;;7.63;6.30;;;18.90;99.90;;;;;;4862514;29;20449;-76
2022/06/27 06:48:11;;;;;;;5.50;5.10;;;19.10;99.90;;;;;;4863719;29;20506;-76
2022/06/27 06:50:38;;;;;;;6.93;4.80;;;19.00;99.90;;;;;;4864047;29;20432;-75
2022/06/27 06:53:05;;;;;;;6.37;5.80;;;19.10;99.90;;;;;;4863301;29;20496;-76
2022/06/27 06:55:32;;;;;;;7.07;6.20;;;19.20;99.90;;;;;;4865622;29;20466;-77
2022/06/27 06:57:59;;;;;;;5.50;4.97;;;19.20;99.90;;;;;;4865074;29;20454;-76
2022/06/27 07:00:28;;;;;;;5.10;4.73;;;19.20;99.90;;;;;;4863493;29;20512;-77
2022/06/27 07:02:55;;;;;;;4.93;4.43;;;19.20;99.90;;;;;;4867719;29;20492;-75
2022/06/27 07:05:25;;;;;;;5.20;4.00;;;19.20;99.90;;;;;;4878800;29;20490;-75
2022/06/27 07:07:52;;;;;;;5.37;4.90;;;19.20;99.90;;;;;;4873977;29;20450;-76
2022/06/27 07:10:19;;;;;;;4.87;4.47;;;19.30;99.90;;;;;;4866048;29;21005;-77
2022/06/27 07:12:47;;;;;;;4.97;4.57;;;19.40;99.90;;;;;;4864346;29;20520;-75
2022/06/27 07:15:14;;;;;;;5.27;4.87;;;19.40;99.90;;;;;;4863935;29;20953;-76
2022/06/27 07:17:45;;;;;;;8.53;5.83;;;19.30;99.90;;;;;;4862708;29;20982;-76
2022/06/27 07:20:13;;;;;;;5.73;5.23;;;19.30;99.90;;;;;;4861566;29;20460;-75
2022/06/27 07:22:40;;;;;;;6.23;5.63;;;19.30;99.90;;;;;;4861988;29;20493;-77
2022/06/27 07:25:09;;;;;;;6.67;6.17;;;19.30;99.90;;;;;;4861590;29;20504;-76
2022/06/27 07:27:36;;;;;;;6.53;5.50;;;19.50;99.90;;;;;;4861529;29;20472;-77
2022/06/27 07:30:03;;;;;;;5.80;5.30;;;19.90;99.90;;;;;;4858702;29;20521;-76
2022/06/27 07:32:31;;;;;;;5.73;5.13;;;20.20;99.90;;;;;;4870630;29;20473;-74
2022/06/27 07:35:00;;;;;;;5.83;5.37;;;20.20;99.90;;;;;;4871192;29;20463;-75
2022/06/27 07:37:27;;;;;;;6.30;5.67;;;20.10;99.90;;;;;;4863418;29;20481;-76
2022/06/27 07:39:54;;;;;;;6.40;5.90;;;20.00;99.90;;;;;;4862414;29;20501;-75
2022/06/27 07:42:22;;;;;;;5.77;5.27;;;20.00;99.90;;;;;;4866208;29;20463;-75
2022/06/27 07:44:50;;;;;;;6.00;5.50;;;19.90;99.90;;;;;;4860431;29;20458;-77
2022/06/27 07:47:17;;;;;;;6.13;5.73;;;20.10;99.90;;;;;;4860839;29;20561;-75
2022/06/27 07:49:44;;;;;;;6.60;6.00;;;20.10;99.90;;;;;;4861597;29;20429;-75
2022/06/27 07:52:13;;;;;;;6.23;5.83;;;20.40;99.90;;;;;;4860780;29;20954;-75
2022/06/27 07:54:40;;;;;;;5.90;5.40;;;20.70;99.90;;;;;;4863290;29;20438;-75
2022/06/27 07:57:06;;;;;;;6.20;5.70;;;20.80;99.90;;;;;;4861202;29;20445;-75
2022/06/27 07:59:34;;;;;;;5.50;5.10;;;21.00;99.90;;;;;;4860487;29;20596;-75
2022/06/27 08:02:01;;;;;;;7.13;6.47;;;21.20;99.80;;;;;;4880365;29;20487;-75
2022/06/27 08:04:28;;;;;;;7.13;6.30;;;21.30;97.80;;;;;;4887319;29;20487;-75
2022/06/27 08:06:55;;;;;;;7.73;6.27;;;21.00;97.60;;;;;;4881441;29;20454;-75
2022/06/27 08:09:24;;;;;;;8.70;7.60;;;21.00;97.40;;;;;;4882491;29;20454;-75
2022/06/27 08:11:51;;;;;;;8.50;7.60;;;20.80;97.60;;;;;;4880942;29;20457;-76
2022/06/27 08:14:18;;;;;;;10.47;7.13;;;20.70;98.30;;;;;;4864926;29;20462;-76
2022/06/27 08:16:49;;;;;;;7.63;7.00;;;20.50;99.10;;;;;;4862543;29;20491;-75
2022/06/27 08:19:17;;;;;;;9.43;8.50;;;20.40;99.90;;;;;;4846369;29;20506;-76
2022/06/27 08:21:44;;;;;;;9.20;8.30;;;20.20;99.90;;;;;;4868754;29;20481;-75
2022/06/27 08:24:15;;;;;;;8.97;8.17;;;19.90;99.90;;;;;;4869071;29;20447;-75
2022/06/27 08:26:44;;;;;;;9.60;8.80;;;19.80;99.90;;;;;;4863163;29;20444;-76
2022/06/27 08:29:11;;;;;;;11.00;9.87;;;19.90;99.90;;;;;;4865191;29;20496;-75
2022/06/27 08:31:41;;;;;;;10.60;9.70;;;19.90;99.90;;;;;;4863647;29;20489;-75
2022/06/27 08:34:09;;;;;;;11.07;9.63;;;19.80;99.90;;;;;;4863909;29;20444;-76
2022/06/27 08:36:39;;;;;;;10.97;9.97;;;19.80;99.90;;;;;;4864849;29;20436;-76
2022/06/27 08:39:11;;;;;;;10.90;9.67;;;19.80;99.90;;;;;;4862161;29;20552;-76
2022/06/27 08:41:39;;;;;;;9.47;8.67;;;19.90;99.90;;;;;;4862648;29;20992;-75
2022/06/27 08:44:08;;;;;;;11.50;8.60;;;20.00;99.90;;;;;;4864228;29;20922;-76
2022/06/27 08:46:35;;;;;;;8.50;7.80;;;20.10;99.90;;;;;;4863472;29;20441;-75
2022/06/27 08:49:04;;;;;;;9.37;8.40;;;20.10;99.90;;;;;;4864094;29;20439;-77
2022/06/27 08:51:33;;;;;;;8.53;7.80;;;20.20;99.90;;;;;;4863514;29;20556;-76
2022/06/27 08:54:00;;;;;;;9.70;8.73;;;20.30;99.90;;;;;;4863746;29;20819;-75
2022/06/27 08:56:28;;;;;;;8.70;8.00;;;20.50;99.90;;;;;;4866305;29;20909;-75
2022/06/27 08:58:58;;;;;;;8.03;7.33;;;20.70;99.90;;;;;;4863685;29;20432;-76
2022/06/27 09:01:27;;;;;;;7.80;7.20;;;21.10;99.90;;;;;;4863371;29;20591;-76
2022/06/27 09:04:00;;;;;;;7.57;6.80;;;21.60;97.90;;;;;;4863513;29;20466;-76
2022/06/27 09:06:30;;;;;;;7.20;6.70;;;21.80;93.70;;;;;;4863340;29;20447;-76
2022/06/27 09:09:05;;;;;;;7.70;7.07;;;21.90;91.90;;;;;;4863335;29;20558;-75
2022/06/27 09:11:35;;;;;;;7.63;6.93;;;21.80;90.00;;;;;;4863812;29;20494;-75
2022/06/27 09:14:03;;;;;;;7.20;6.50;;;21.70;90.50;;;;;;4863555;29;21016;-76
2022/06/27 09:16:31;;;;;;;8.70;7.80;;;21.50;91.10;;;;;;4864694;29;20462;-76
2022/06/27 09:18:59;;;;;;;6.97;6.37;;;21.40;92.30;;;;;;4868539;29;20440;-76
2022/06/27 09:21:27;;;;;;;7.87;7.20;;;21.40;91.80;;;;;;4865090;29;20516;-75
2022/06/27 09:23:55;;;;;;;8.03;6.90;;;21.20;92.70;;;;;;4866652;29;20466;-77
2022/06/27 09:26:23;;;;;;;7.47;6.90;;;20.90;92.90;;;;;;4869239;29;20504;-75
2022/06/27 09:28:53;;;;;;;8.90;7.00;;;20.80;93.90;;;;;;4872633;29;20476;-77
2022/06/27 09:31:33;;;;;;;8.17;7.47;;;20.70;94.40;;;;;;4873901;29;20565;-76
2022/06/27 09:34:03;;;;;;;8.30;7.50;;;20.90;94.40;;;;;;4862787;29;20557;-76
2022/06/27 09:36:31;;;;;;;8.83;7.30;;;21.50;94.00;;;;;;4862980;29;20791;-76
2022/06/27 09:38:59;;;;;;;6.97;6.37;;;22.10;92.80;;;;;;4862260;29;20501;-75
2022/06/27 09:41:29;;;;;;;7.07;6.50;;;22.60;84.40;;;;;;4861926;29;20511;-75
2022/06/27 09:44:01;;;;;;;6.13;5.73;;;22.90;81.40;;;;;;4862481;29;20439;-76
2022/06/27 09:46:35;;;;;;;6.80;6.10;;;23.20;79.70;;;;;;4863133;29;20454;-75
2022/06/27 09:49:05;;;;;;;6.73;6.07;;;23.30;76.80;;;;;;4864690;29;20546;-76
2022/06/27 09:51:34;;;;;;;6.47;5.97;;;23.00;69.70;;;;;;4865153;29;20448;-76
2022/06/27 09:54:08;;;;;;;6.40;5.80;;;22.80;70.30;;;;;;4864226;29;20445;-75
2022/06/27 09:56:37;;;;;;;7.00;6.40;;;22.70;70.20;;;;;;4865562;29;20456;-75
2022/06/27 09:59:04;;;;;;;7.10;6.50;;;22.70;70.20;;;;;;4865455;29;20494;-74
2022/06/27 10:01:34;;;;;;;6.23;5.73;;;22.60;74.50;;;;;;4865976;29;20984;-74
2022/06/27 10:04:03;;;;;;;7.93;6.53;;;23.00;74.50;;;;;;4856324;29;20885;-76
2022/06/27 10:06:30;;;;;;;7.53;6.77;;;23.30;71.50;;;;;;4870090;29;20504;-75
2022/06/27 10:08:58;;;;;;;6.63;6.10;;;23.50;67.50;;;;;;4863741;29;20956;-75
2022/06/27 10:11:25;;;;;;;6.47;5.93;;;23.30;66.30;;;;;;4862139;29;20492;-74
2022/06/27 10:14:14;;;;;;;6.60;6.00;;;22.90;71.50;;;;;;4864303;29;20476;-74
2022/06/27 10:16:57;;;;;;;6.50;6.00;;;22.70;74.80;;;;;;4862985;29;20820;-74
2022/06/27 10:19:25;;;;;;;10.27;6.47;;;22.50;70.90;;;;;;4861641;29;20542;-74
2022/06/27 10:21:52;;;;;;;8.23;7.30;;;22.10;72.40;;;;;;4860835;29;20502;-75
2022/06/27 10:24:35;;;;;;;9.30;7.13;;;21.70;77.80;;;;;;4861887;29;20943;-75
2022/06/27 10:27:07;;;;;;;8.20;7.43;;;21.60;82.20;;;;;;4861492;29;20445;-74
2022/06/27 10:29:41;;;;;;;8.47;7.67;;;21.70;84.10;;;;;;4864334;29;20488;-75
2022/06/27 10:32:43;;;;;;;8.27;7.57;;;21.60;86.20;;;;;;4865243;29;21038;-75
2022/06/27 10:35:16;;;;;;;8.37;7.00;;;21.90;85.40;;;;;;4861290;29;20466;-75
2022/06/27 10:37:44;;;;;;;9.33;6.50;;;22.40;84.00;;;;;;4861798;29;20871;-74
2022/06/27 10:40:53;;;;;;;8.33;7.40;;;22.80;80.30;;;;;;4861048;29;20935;-73
2022/06/27 10:43:41;;;;;;;8.23;7.43;;;23.00;73.90;;;;;;4863952;29;20490;-77
2022/06/27 10:46:41;;;;;;;9.07;7.90;;;23.10;73.20;;;;;;4861808;29;20512;-77
2022/06/27 10:49:21;;;;;;;8.40;7.60;;;23.10;75.80;;;;;;4863256;29;20472;-77
2022/06/27 10:51:48;;;;;;;10.00;8.70;;;23.10;74.40;;;;;;4863093;29;20481;-77
2022/06/27 10:54:15;;;;;;;9.07;8.10;;;23.30;71.70;;;;;;4863129;29;20475;-76
2022/06/27 10:56:45;;;;;;;9.23;8.43;;;23.20;72.80;;;;;;4858109;29;20966;-77
2022/06/27 10:59:59;;;;;;;9.70;8.20;;;23.10;73.70;;;;;;4860521;29;20468;-77
2022/06/27 11:02:29;;;;;;;9.17;8.30;;;23.20;71.10;;;;;;4861081;29;20440;-76
2022/06/27 11:04:58;;;;;;;9.00;8.07;;;23.00;71.00;;;;;;4860817;29;20428;-75
2022/06/27 11:07:25;;;;;;;8.27;7.50;;;23.00;72.00;;;;;;4865649;29;20473;-76
2022/06/27 11:09:52;;;;;;;9.33;7.90;;;22.90;72.90;;;;;;4879949;29;20545;-76
2022/06/27 11:12:23;;;;;;;9.30;8.50;;;22.70;72.90;;;;;;4869236;29;20826;-75
2022/06/27 11:14:50;;;;;;;9.00;8.10;;;22.40;74.80;;;;;;4861901;29;20465;-76
2022/06/27 11:17:38;;;;;;;8.30;7.50;;;22.30;75.60;;;;;;4862720;29;20464;-76
2022/06/27 11:20:19;;;;;;;21.13;6.77;;;22.50;76.30;;;;;;4886110;29;20537;-76
2022/06/27 11:22:47;;;;;;;8.63;7.17;;;22.50;75.20;;;;;;4866034;29;20480;-75
2022/06/27 11:25:15;;;;;;;7.63;6.40;;;22.50;76.20;;;;;;4866801;29;20900;-75
2022/06/27 11:27:54;;;;;;;9.63;6.87;;;22.60;74.60;;;;;;4860655;29;20806;-75
2022/06/27 11:33:20;;;;;;;6.53;5.67;;;23.10;69.10;;;;;;4862585;29;20619;-76
2022/06/27 11:35:49;;;;;;;7.10;5.30;;;23.50;67.90;;;;;;4864698;29;20881;-75
2022/06/27 11:38:27;;;;;;;6.20;5.47;;;23.70;66.60;;;;;;4874715;29;20456;-75
2022/06/27 11:41:06;;;;;;;11.10;5.90;;;23.90;66.00;;;;;;4879228;29;20543;-74
2022/06/27 11:43:56;;;;;;;5.03;4.63;;;24.50;63.30;;;;;;4888640;29;20440;-75
2022/06/27 11:46:31;;;;;;;4.63;4.30;;;24.80;58.20;;;;;;4869057;29;20457;-75
2022/06/27 11:49:00;;;;;;;7.77;4.20;;;24.80;58.10;;;;;;4860239;29;20901;-76
2022/06/27 11:51:31;;;;;;;4.17;3.87;;;25.10;58.00;;;;;;4851471;29;20559;-76
2022/06/27 11:54:02;;;;;;;4.37;3.97;;;25.20;56.00;;;;;;4851664;29;20921;-74
2022/06/27 11:56:30;;;;;;;3.87;3.57;;;25.40;55.40;;;;;;4860072;29;20896;-75
2022/06/27 11:58:58;;;;;;;3.53;3.27;;;25.50;53.90;;;;;;4859873;29;20460;-74
2022/06/27 12:01:26;;;;;;;5.67;3.83;;;25.40;53.90;;;;;;4861421;29;20585;-75
2022/06/27 12:04:13;;;;;;;3.93;3.63;;;25.70;51.60;;;;;;4862994;29;20470;-75
2022/06/27 12:06:45;;;;;;;3.50;3.10;;;25.60;53.20;;;;;;4860171;29;20421;-76
2022/06/27 12:09:12;;;;;;;3.03;2.83;;;25.20;52.40;;;;;;4849826;29;20429;-75
2022/06/27 12:11:52;;;;;;;4.07;3.33;;;25.30;53.80;;;;;;4870858;29;21013;-76
2022/06/27 12:14:19;;;;;;;5.47;3.47;;;25.40;52.90;;;;;;4868749;29;20417;-77
2022/06/27 12:16:48;;;;;;;3.63;3.43;;;25.50;51.20;;;;;;4865485;29;21030;-75
2022/06/27 12:19:15;;;;;;;5.43;3.50;;;25.30;52.90;;;;;;4863406;29;20470;-75
2022/06/27 12:21:44;;;;;;;3.50;3.30;;;25.40;53.80;;;;;;4864724;29;20593;-76
2022/06/27 12:24:12;;;;;;;3.47;3.20;;;25.80;52.50;;;;;;4864863;29;20495;-75
2022/06/27 12:26:39;;;;;;;3.77;3.23;;;26.30;50.50;;;;;;4870698;29;20443;-76
2022/06/27 12:29:06;;;;;;;4.20;3.07;;;26.50;49.10;;;;;;4859337;29;20921;-75
2022/06/27 12:31:34;;;;;;;3.87;3.57;;;26.00;50.10;;;;;;4863258;29;20478;-75
2022/06/27 12:34:01;;;;;;;3.40;3.20;;;25.30;53.50;;;;;;4870089;29;20463;-76
2022/06/27 12:36:30;;;;;;;3.43;3.13;;;25.20;53.60;;;;;;4868711;29;20518;-75
2022/06/27 12:38:59;;;;;;;3.83;3.40;;;25.20;53.70;;;;;;4863414;29;20458;-76
2022/06/27 12:41:26;;;;;;;3.37;3.17;;;24.90;53.40;;;;;;4862896;29;20510;-76
2022/06/27 12:43:53;;;;;;;3.73;3.47;;;24.70;54.40;;;;;;4864903;29;20468;-76
2022/06/27 12:46:20;;;;;;;3.80;2.93;;;24.50;54.60;;;;;;4865584;29;20460;-75
2022/06/27 12:48:48;;;;;;;3.60;3.10;;;24.70;54.90;;;;;;4847409;29;20436;-76
2022/06/27 12:51:16;;;;;;;2.90;2.70;;;24.50;54.00;;;;;;4863977;29;20436;-77
2022/06/27 12:53:43;;;;;;;2.93;2.73;;;24.40;53.40;;;;;;4876996;29;20469;-76
2022/06/27 12:56:11;;;;;;;2.93;2.67;;;24.20;53.50;;;;;;4869234;29;20481;-76
2022/06/27 12:58:38;;;;;;;3.20;2.80;;;24.00;54.10;;;;;;4867379;29;20467;-77
2022/06/27 13:01:05;;;;;;;2.93;2.73;;;23.80;54.70;;;;;;4867323;29;20497;-77